sensor_id;sensor_type;location;lat;lon;timestamp;pressure;altitude;pressure_sealevel;temperature;humidity
10946;BME280;5525;42.648;23.368;2023-04-22T00:00:46;94369.00;;;8.69;100.00
10946;BME280;5525;42.648;23.368;2023-04-22T00:03:12;94380.72;;;8.65;100.00
10946;BME280;5525;42.648;23.368;2023-04-22T00:05:40;94374.25;;;8.57;100.00
10946;BME280;5525;42.648;23.368;2023-04-22T00:08:09;94379.00;;;8.60;100.00
10946;BME280;5525;42.648;23.368;2023-04-22T00:10:35;94366.16;;;8.57;100.00
10946;BME280;5525;42.648;23.368;2023-04-22T00:13:02;94369.19;;;8.55;100.00
10946;BME280;5525;42.648;23.368;2023-04-22T00:15:29;94366.50;;;8.55;100.00
10946;BME280;5525;42.648;23.368;2023-04-22T00:17:57;94359.84;;;8.62;100.00
10946;BME280;5525;42.648;23.368;2023-04-22T00:20:24;94363.31;;;8.71;100.00
10946;BME280;5525;42.648;23.368;2023-04-22T00:22:52;94366.19;;;8.66;100.00
10946;BME280;5525;42.648;23.368;2023-04-22T00:25:19;94360.00;;;8.65;100.00
10946;BME280;5525;42.648;23.368;2023-04-22T00:27:45;94360.00;;;8.65;100.00
10946;BME280;5525;42.648;23.368;2023-04-22T00:30:12;94357.63;;;8.64;100.00
10946;BME280;5525;42.648;23.368;2023-04-22T00:32:39;94361.88;;;8.65;100.00
10946;BME280;5525;42.648;23.368;2023-04-22T00:35:06;94360.94;;;8.61;100.00
10946;BME280;5525;42.648;23.368;2023-04-22T00:37:33;94361.59;;;8.40;100.00
10946;BME280;5525;42.648;23.368;2023-04-22T00:40:01;94377.38;;;8.08;100.00
10946;BME280;5525;42.648;23.368;2023-04-22T00:42:28;94375.63;;;8.03;100.00
10946;BME280;5525;42.648;23.368;2023-04-22T00:44:55;94365.84;;;8.16;100.00
10946;BME280;5525;42.648;23.368;2023-04-22T00:47:22;94376.22;;;7.92;100.00
10946;BME280;5525;42.648;23.368;2023-04-22T00:49:51;94373.56;;;8.00;100.00
10946;BME280;5525;42.648;23.368;2023-04-22T00:52:18;94372.09;;;7.86;100.00
10946;BME280;5525;42.648;23.368;2023-04-22T00:54:45;94374.34;;;7.92;100.00
10946;BME280;5525;42.648;23.368;2023-04-22T00:57:16;94384.78;;;7.94;100.00
10946;BME280;5525;42.648;23.368;2023-04-22T00:59:43;94389.06;;;8.12;100.00
10946;BME280;5525;42.648;23.368;2023-04-22T01:02:10;94381.91;;;7.82;100.00
10946;BME280;5525;42.648;23.368;2023-04-22T01:04:37;94386.03;;;7.79;100.00
10946;BME280;5525;42.648;23.368;2023-04-22T01:07:04;94389.63;;;7.66;100.00
10946;BME280;5525;42.648;23.368;2023-04-22T01:09:31;94387.38;;;7.60;100.00
10946;BME280;5525;42.648;23.368;2023-04-22T01:11:58;94387.97;;;7.48;100.00
10946;BME280;5525;42.648;23.368;2023-04-22T01:14:27;94389.28;;;7.20;100.00
10946;BME280;5525;42.648;23.368;2023-04-22T01:16:54;94396.19;;;7.13;100.00
10946;BME280;5525;42.648;23.368;2023-04-22T01:19:22;94385.03;;;7.19;100.00
10946;BME280;5525;42.648;23.368;2023-04-22T01:21:49;94395.66;;;7.33;100.00
10946;BME280;5525;42.648;23.368;2023-04-22T01:24:18;94396.28;;;7.30;100.00
10946;BME280;5525;42.648;23.368;2023-04-22T01:26:46;94391.53;;;7.27;100.00
10946;BME280;5525;42.648;23.368;2023-04-22T01:29:13;94399.09;;;7.25;100.00
10946;BME280;5525;42.648;23.368;2023-04-22T01:31:40;94399.91;;;7.25;100.00
10946;BME280;5525;42.648;23.368;2023-04-22T01:34:07;94395.56;;;7.16;100.00
10946;BME280;5525;42.648;23.368;2023-04-22T01:36:33;94394.38;;;7.00;100.00
10946;BME280;5525;42.648;23.368;2023-04-22T01:39:00;94401.59;;;7.21;100.00
10946;BME280;5525;42.648;23.368;2023-04-22T01:41:28;94399.22;;;7.20;100.00
10946;BME280;5525;42.648;23.368;2023-04-22T01:43:56;94391.09;;;7.33;100.00
10946;BME280;5525;42.648;23.368;2023-04-22T01:46:23;94392.69;;;7.43;100.00
10946;BME280;5525;42.648;23.368;2023-04-22T01:48:50;94396.03;;;7.48;100.00
10946;BME280;5525;42.648;23.368;2023-04-22T01:51:17;94387.09;;;7.70;100.00
10946;BME280;5525;42.648;23.368;2023-04-22T01:53:46;94390.59;;;7.79;100.00
10946;BME280;5525;42.648;23.368;2023-04-22T01:56:13;94390.25;;;7.63;100.00
10946;BME280;5525;42.648;23.368;2023-04-22T01:58:41;94391.38;;;7.71;100.00
10946;BME280;5525;42.648;23.368;2023-04-22T02:01:08;94388.84;;;7.83;100.00
10946;BME280;5525;42.648;23.368;2023-04-22T02:03:35;94390.78;;;7.82;100.00
10946;BME280;5525;42.648;23.368;2023-04-22T02:06:02;94390.91;;;7.77;100.00
10946;BME280;5525;42.648;23.368;2023-04-22T02:08:29;94389.03;;;7.78;100.00
10946;BME280;5525;42.648;23.368;2023-04-22T02:10:55;94394.59;;;7.90;100.00
10946;BME280;5525;42.648;23.368;2023-04-22T02:13:22;94395.03;;;7.92;100.00
10946;BME280;5525;42.648;23.368;2023-04-22T02:15:50;94389.38;;;8.02;100.00
10946;BME280;5525;42.648;23.368;2023-04-22T02:18:17;94385.91;;;8.10;100.00
10946;BME280;5525;42.648;23.368;2023-04-22T02:20:44;94399.69;;;8.17;100.00
10946;BME280;5525;42.648;23.368;2023-04-22T02:23:11;94392.13;;;8.27;100.00
10946;BME280;5525;42.648;23.368;2023-04-22T02:25:38;94388.19;;;8.42;100.00
10946;BME280;5525;42.648;23.368;2023-04-22T02:28:05;94388.78;;;8.30;100.00
10946;BME280;5525;42.648;23.368;2023-04-22T02:30:31;94384.53;;;8.38;100.00
10946;BME280;5525;42.648;23.368;2023-04-22T02:32:59;94365.53;;;8.43;100.00
10946;BME280;5525;42.648;23.368;2023-04-22T02:35:26;94397.69;;;8.65;100.00
10946;BME280;5525;42.648;23.368;2023-04-22T02:37:53;94384.84;;;8.45;100.00
10946;BME280;5525;42.648;23.368;2023-04-22T02:40:20;94387.22;;;8.46;100.00
10946;BME280;5525;42.648;23.368;2023-04-22T02:42:46;94392.28;;;8.22;100.00
10946;BME280;5525;42.648;23.368;2023-04-22T02:45:13;94396.50;;;7.98;100.00
10946;BME280;5525;42.648;23.368;2023-04-22T02:47:40;94394.41;;;7.86;100.00
10946;BME280;5525;42.648;23.368;2023-04-22T02:50:09;94393.91;;;7.84;100.00
10946;BME280;5525;42.648;23.368;2023-04-22T02:52:36;94405.78;;;7.75;100.00
10946;BME280;5525;42.648;23.368;2023-04-22T02:55:03;94409.59;;;7.82;100.00
10946;BME280;5525;42.648;23.368;2023-04-22T02:57:30;94409.09;;;7.72;100.00
10946;BME280;5525;42.648;23.368;2023-04-22T02:59:57;94407.50;;;7.71;100.00
10946;BME280;5525;42.648;23.368;2023-04-22T03:02:23;94414.59;;;7.67;100.00
10946;BME280;5525;42.648;23.368;2023-04-22T03:04:50;94414.91;;;7.65;100.00
10946;BME280;5525;42.648;23.368;2023-04-22T03:07:20;94411.56;;;7.60;100.00
10946;BME280;5525;42.648;23.368;2023-04-22T03:09:46;94411.25;;;7.61;100.00
10946;BME280;5525;42.648;23.368;2023-04-22T03:12:13;94406.03;;;7.65;100.00
10946;BME280;5525;42.648;23.368;2023-04-22T03:14:40;94414.59;;;7.67;100.00
10946;BME280;5525;42.648;23.368;2023-04-22T03:17:06;94404.78;;;7.71;100.00
10946;BME280;5525;42.648;23.368;2023-04-22T03:19:33;94411.25;;;7.61;100.00
10946;BME280;5525;42.648;23.368;2023-04-22T03:21:59;94413.91;;;7.53;100.00
10946;BME280;5525;42.648;23.368;2023-04-22T03:24:27;94410.94;;;7.63;100.00
10946;BME280;5525;42.648;23.368;2023-04-22T03:26:54;94417.16;;;7.72;100.00
10946;BME280;5525;42.648;23.368;2023-04-22T03:29:21;94414.16;;;7.73;100.00
10946;BME280;5525;42.648;23.368;2023-04-22T03:31:47;94413.69;;;7.80;100.00
10946;BME280;5525;42.648;23.368;2023-04-22T03:34:14;94419.84;;;7.80;100.00
10946;BME280;5525;42.648;23.368;2023-04-22T03:36:41;94414.66;;;7.84;100.00
10946;BME280;5525;42.648;23.368;2023-04-22T03:39:08;94424.44;;;7.80;100.00
10946;BME280;5525;42.648;23.368;2023-04-22T03:41:36;94413.03;;;7.74;100.00
10946;BME280;5525;42.648;23.368;2023-04-22T03:44:03;94431.56;;;7.84;100.00
10946;BME280;5525;42.648;23.368;2023-04-22T03:46:29;94433.13;;;7.77;100.00
10946;BME280;5525;42.648;23.368;2023-04-22T03:48:56;94431.25;;;7.86;100.00
10946;BME280;5525;42.648;23.368;2023-04-22T03:51:22;94431.88;;;7.83;100.00
10946;BME280;5525;42.648;23.368;2023-04-22T03:53:49;94429.16;;;7.83;100.00
10946;BME280;5525;42.648;23.368;2023-04-22T03:56:16;94429.22;;;7.91;100.00
10946;BME280;5525;42.648;23.368;2023-04-22T03:58:44;94427.97;;;7.97;100.00
10946;BME280;5525;42.648;23.368;2023-04-22T04:01:11;94423.66;;;7.88;100.00
10946;BME280;5525;42.648;23.368;2023-04-22T04:03:37;94437.09;;;7.88;100.00
10946;BME280;5525;42.648;23.368;2023-04-22T04:06:05;94440.66;;;7.66;100.00
10946;BME280;5525;42.648;23.368;2023-04-22T04:08:31;94435.19;;;7.80;100.00
10946;BME280;5525;42.648;23.368;2023-04-22T04:10:58;94439.31;;;7.86;100.00
10946;BME280;5525;42.648;23.368;2023-04-22T04:13:25;94441.84;;;7.91;100.00
10946;BME280;5525;42.648;23.368;2023-04-22T04:15:57;94437.53;;;7.73;100.00
10946;BME280;5525;42.648;23.368;2023-04-22T04:18:24;94447.69;;;7.84;100.00
10946;BME280;5525;42.648;23.368;2023-04-22T04:20:51;94442.16;;;7.89;100.00
10946;BME280;5525;42.648;23.368;2023-04-22T04:23:17;94452.22;;;7.75;100.00
10946;BME280;5525;42.648;23.368;2023-04-22T04:25:44;94450.72;;;7.91;100.00
10946;BME280;5525;42.648;23.368;2023-04-22T04:28:12;94443.47;;;8.09;100.00
10946;BME280;5525;42.648;23.368;2023-04-22T04:30:39;94439.84;;;8.05;100.00
10946;BME280;5525;42.648;23.368;2023-04-22T04:33:08;94456.78;;;8.05;100.00
10946;BME280;5525;42.648;23.368;2023-04-22T04:35:36;94447.09;;;9.49;100.00
10946;BME280;5525;42.648;23.368;2023-04-22T04:38:03;94450.09;;;10.32;100.00
10946;BME280;5525;42.648;23.368;2023-04-22T04:40:31;94464.28;;;12.12;100.00
10946;BME280;5525;42.648;23.368;2023-04-22T04:42:58;94459.03;;;13.74;100.00
10946;BME280;5525;42.648;23.368;2023-04-22T04:45:26;94457.34;;;15.51;100.00
10946;BME280;5525;42.648;23.368;2023-04-22T04:47:54;94466.78;;;16.93;90.85
10946;BME280;5525;42.648;23.368;2023-04-22T04:50:22;94469.91;;;17.50;74.27
10946;BME280;5525;42.648;23.368;2023-04-22T04:52:52;94469.91;;;18.60;67.88
10946;BME280;5525;42.648;23.368;2023-04-22T04:55:19;94467.16;;;19.14;63.48
10946;BME280;5525;42.648;23.368;2023-04-22T04:57:46;94476.06;;;19.69;60.28
10946;BME280;5525;42.648;23.368;2023-04-22T05:00:13;94476.22;;;21.44;53.74
10946;BME280;5525;42.648;23.368;2023-04-22T05:02:40;94483.97;;;21.85;50.51
10946;BME280;5525;42.648;23.368;2023-04-22T05:05:08;94476.78;;;23.17;46.69
10946;BME280;5525;42.648;23.368;2023-04-22T05:07:36;94472.97;;;23.04;45.29
10946;BME280;5525;42.648;23.368;2023-04-22T05:10:03;94478.81;;;23.13;42.81
10946;BME280;5525;42.648;23.368;2023-04-22T05:12:30;94489.44;;;23.11;42.92
10946;BME280;5525;42.648;23.368;2023-04-22T05:14:56;94487.53;;;21.60;44.76
10946;BME280;5525;42.648;23.368;2023-04-22T05:17:23;94488.91;;;22.18;45.09
10946;BME280;5525;42.648;23.368;2023-04-22T05:19:50;94480.56;;;23.38;43.24
10946;BME280;5525;42.648;23.368;2023-04-22T05:22:17;94483.66;;;24.14;40.40
10946;BME280;5525;42.648;23.368;2023-04-22T05:24:45;94493.31;;;24.82;38.39
10946;BME280;5525;42.648;23.368;2023-04-22T05:27:11;94489.41;;;25.52;36.88
10946;BME280;5525;42.648;23.368;2023-04-22T05:29:38;94494.09;;;25.32;36.76
10946;BME280;5525;42.648;23.368;2023-04-22T05:32:05;94495.09;;;25.19;36.51
10946;BME280;5525;42.648;23.368;2023-04-22T05:34:33;94489.78;;;25.74;35.79
10946;BME280;5525;42.648;23.368;2023-04-22T05:37:01;94498.41;;;25.56;35.72
10946;BME280;5525;42.648;23.368;2023-04-22T05:39:28;94496.63;;;24.17;36.98
10946;BME280;5525;42.648;23.368;2023-04-22T05:41:56;94498.03;;;22.01;40.71
10946;BME280;5525;42.648;23.368;2023-04-22T05:44:23;94498.66;;;20.83;45.16
10946;BME280;5525;42.648;23.368;2023-04-22T05:46:49;94490.38;;;20.73;45.70
10946;BME280;5525;42.648;23.368;2023-04-22T05:49:16;94494.22;;;18.32;53.46
10946;BME280;5525;42.648;23.368;2023-04-22T05:51:43;94494.59;;;16.08;72.17
10946;BME280;5525;42.648;23.368;2023-04-22T05:54:09;94495.13;;;16.39;71.98
10946;BME280;5525;42.648;23.368;2023-04-22T05:56:36;94488.41;;;14.62;88.40
10946;BME280;5525;42.648;23.368;2023-04-22T05:59:04;94487.25;;;14.16;98.33
10946;BME280;5525;42.648;23.368;2023-04-22T06:01:31;94487.66;;;17.67;78.11
10946;BME280;5525;42.648;23.368;2023-04-22T06:03:57;94483.72;;;20.42;60.00
10946;BME280;5525;42.648;23.368;2023-04-22T06:06:24;94479.00;;;22.31;52.22
10946;BME280;5525;42.648;23.368;2023-04-22T06:08:51;94482.13;;;22.36;48.71
10946;BME280;5525;42.648;23.368;2023-04-22T06:11:18;94483.94;;;23.89;43.59
10946;BME280;5525;42.648;23.368;2023-04-22T06:13:45;94485.44;;;23.94;42.39
10946;BME280;5525;42.648;23.368;2023-04-22T06:16:13;94483.31;;;24.38;41.66
10946;BME280;5525;42.648;23.368;2023-04-22T06:18:40;94479.44;;;23.69;42.53
10946;BME280;5525;42.648;23.368;2023-04-22T06:21:08;94487.59;;;24.96;40.41
10946;BME280;5525;42.648;23.368;2023-04-22T06:23:34;94489.63;;;25.61;38.52
10946;BME280;5525;42.648;23.368;2023-04-22T06:26:01;94495.22;;;27.23;36.14
10946;BME280;5525;42.648;23.368;2023-04-22T06:28:28;94486.13;;;27.99;33.87
10946;BME280;5525;42.648;23.368;2023-04-22T06:30:54;94500.34;;;30.36;29.88
10946;BME280;5525;42.648;23.368;2023-04-22T06:33:23;94502.38;;;31.94;28.07
10946;BME280;5525;42.648;23.368;2023-04-22T06:35:49;94510.47;;;33.15;26.10
10946;BME280;5525;42.648;23.368;2023-04-22T06:38:16;94509.47;;;27.86;31.22
10946;BME280;5525;42.648;23.368;2023-04-22T06:40:43;94506.34;;;30.35;29.06
10946;BME280;5525;42.648;23.368;2023-04-22T06:43:09;94512.25;;;32.95;26.59
10946;BME280;5525;42.648;23.368;2023-04-22T06:45:36;94512.47;;;31.83;26.56
10946;BME280;5525;42.648;23.368;2023-04-22T06:48:03;94509.22;;;30.74;27.56
10946;BME280;5525;42.648;23.368;2023-04-22T06:50:31;94511.22;;;32.11;26.11
10946;BME280;5525;42.648;23.368;2023-04-22T06:52:57;94508.03;;;29.77;28.07
10946;BME280;5525;42.648;23.368;2023-04-22T06:55:24;94505.38;;;27.14;32.14
10946;BME280;5525;42.648;23.368;2023-04-22T06:57:51;94497.19;;;27.71;31.70
10946;BME280;5525;42.648;23.368;2023-04-22T07:00:17;94500.41;;;28.68;30.61
10946;BME280;5525;42.648;23.368;2023-04-22T07:02:44;94504.38;;;27.68;31.62
10946;BME280;5525;42.648;23.368;2023-04-22T07:05:11;94508.66;;;28.84;30.43
10946;BME280;5525;42.648;23.368;2023-04-22T07:07:39;94505.63;;;29.66;28.61
10946;BME280;5525;42.648;23.368;2023-04-22T07:10:06;94502.25;;;29.71;28.95
10946;BME280;5525;42.648;23.368;2023-04-22T07:12:33;94505.19;;;29.05;29.74
10946;BME280;5525;42.648;23.368;2023-04-22T07:15:00;94514.31;;;30.67;27.88
10946;BME280;5525;42.648;23.368;2023-04-22T07:17:26;94510.16;;;32.35;25.99
10946;BME280;5525;42.648;23.368;2023-04-22T07:19:53;94515.91;;;32.50;25.90
10946;BME280;5525;42.648;23.368;2023-04-22T07:22:20;94509.34;;;32.17;25.05
10946;BME280;5525;42.648;23.368;2023-04-22T07:24:48;94500.09;;;28.37;29.44
10946;BME280;5525;42.648;23.368;2023-04-22T07:27:15;94508.44;;;28.25;30.85
10946;BME280;5525;42.648;23.368;2023-04-22T07:29:42;94511.69;;;32.18;26.31
10946;BME280;5525;42.648;23.368;2023-04-22T07:32:08;94514.31;;;34.30;23.92
10946;BME280;5525;42.648;23.368;2023-04-22T07:34:35;94517.38;;;34.85;22.92
10946;BME280;5525;42.648;23.368;2023-04-22T07:37:02;94518.41;;;33.08;24.07
10946;BME280;5525;42.648;23.368;2023-04-22T07:39:29;94518.81;;;35.88;21.86
10946;BME280;5525;42.648;23.368;2023-04-22T07:41:57;94520.63;;;37.53;20.68
10946;BME280;5525;42.648;23.368;2023-04-22T07:44:24;94515.63;;;34.20;22.71
10946;BME280;5525;42.648;23.368;2023-04-22T07:46:50;94518.59;;;33.37;23.12
10946;BME280;5525;42.648;23.368;2023-04-22T07:49:18;94501.59;;;32.30;23.82
10946;BME280;5525;42.648;23.368;2023-04-22T07:51:45;94507.94;;;34.06;22.45
10946;BME280;5525;42.648;23.368;2023-04-22T07:54:11;94509.59;;;35.52;20.96
10946;BME280;5525;42.648;23.368;2023-04-22T07:56:38;94510.91;;;36.72;20.31
10946;BME280;5525;42.648;23.368;2023-04-22T07:59:06;94507.06;;;37.57;19.32
10946;BME280;5525;42.648;23.368;2023-04-22T08:01:33;94505.13;;;38.11;19.13
10946;BME280;5525;42.648;23.368;2023-04-22T08:03:59;94505.72;;;36.65;19.81
10946;BME280;5525;42.648;23.368;2023-04-22T08:06:26;94502.25;;;38.05;18.67
10946;BME280;5525;42.648;23.368;2023-04-22T08:08:53;94503.75;;;37.59;19.15
10946;BME280;5525;42.648;23.368;2023-04-22T08:11:20;94501.81;;;34.98;21.15
10946;BME280;5525;42.648;23.368;2023-04-22T08:13:46;94492.09;;;35.43;20.77
10946;BME280;5525;42.648;23.368;2023-04-22T08:16:14;94502.59;;;35.97;20.14
10946;BME280;5525;42.648;23.368;2023-04-22T08:18:41;94481.31;;;37.70;18.81
10946;BME280;5525;42.648;23.368;2023-04-22T08:21:08;94487.25;;;35.43;20.38
10946;BME280;5525;42.648;23.368;2023-04-22T08:23:35;94485.34;;;37.27;19.19
10946;BME280;5525;42.648;23.368;2023-04-22T08:26:02;94491.44;;;35.83;19.87
10946;BME280;5525;42.648;23.368;2023-04-22T08:28:29;94482.59;;;35.06;20.37
10946;BME280;5525;42.648;23.368;2023-04-22T08:30:55;94482.88;;;37.08;19.39
10946;BME280;5525;42.648;23.368;2023-04-22T08:33:23;94484.28;;;35.67;20.38
10946;BME280;5525;42.648;23.368;2023-04-22T08:35:50;94474.00;;;36.90;19.49
10946;BME280;5525;42.648;23.368;2023-04-22T08:38:17;94473.06;;;34.45;21.51
10946;BME280;5525;42.648;23.368;2023-04-22T08:40:45;94475.13;;;35.03;20.31
10946;BME280;5525;42.648;23.368;2023-04-22T08:43:12;94472.00;;;34.57;20.64
10946;BME280;5525;42.648;23.368;2023-04-22T08:45:39;94466.59;;;35.81;20.08
10946;BME280;5525;42.648;23.368;2023-04-22T08:48:06;94456.16;;;36.98;18.83
10946;BME280;5525;42.648;23.368;2023-04-22T08:50:36;94458.41;;;35.98;19.18
10946;BME280;5525;42.648;23.368;2023-04-22T08:53:03;94447.47;;;36.45;18.74
10946;BME280;5525;42.648;23.368;2023-04-22T08:55:30;94443.69;;;33.79;20.83
10946;BME280;5525;42.648;23.368;2023-04-22T08:57:59;94443.13;;;30.01;24.60
10946;BME280;5525;42.648;23.368;2023-04-22T09:00:28;94432.22;;;31.56;23.18
10946;BME280;5525;42.648;23.368;2023-04-22T09:02:57;94433.28;;;32.31;22.73
10946;BME280;5525;42.648;23.368;2023-04-22T09:05:27;94433.50;;;31.15;23.72
10946;BME280;5525;42.648;23.368;2023-04-22T09:07:55;94429.72;;;32.21;22.39
10946;BME280;5525;42.648;23.368;2023-04-22T09:10:22;94424.75;;;31.44;22.84
10946;BME280;5525;42.648;23.368;2023-04-22T09:12:50;94430.03;;;34.48;20.11
10946;BME280;5525;42.648;23.368;2023-04-22T09:15:17;94435.91;;;35.08;19.23
10946;BME280;5525;42.648;23.368;2023-04-22T09:17:44;94428.50;;;35.80;18.54
10946;BME280;5525;42.648;23.368;2023-04-22T09:20:10;94437.97;;;34.93;19.34
10946;BME280;5525;42.648;23.368;2023-04-22T09:22:41;94425.19;;;34.63;19.32
10946;BME280;5525;42.648;23.368;2023-04-22T09:25:16;94435.16;;;33.97;19.73
10946;BME280;5525;42.648;23.368;2023-04-22T09:27:47;94419.34;;;32.04;21.25
10946;BME280;5525;42.648;23.368;2023-04-22T09:30:16;94425.03;;;33.29;19.95
10946;BME280;5525;42.648;23.368;2023-04-22T09:32:51;94412.84;;;33.41;20.40
10946;BME280;5525;42.648;23.368;2023-04-22T09:35:23;94404.94;;;34.15;19.20
10946;BME280;5525;42.648;23.368;2023-04-22T09:37:51;94408.41;;;33.96;18.66
10946;BME280;5525;42.648;23.368;2023-04-22T09:40:19;94415.81;;;34.95;18.00
10946;BME280;5525;42.648;23.368;2023-04-22T09:42:47;94400.56;;;33.62;18.39
10946;BME280;5525;42.648;23.368;2023-04-22T09:45:24;94414.72;;;34.20;18.14
10946;BME280;5525;42.648;23.368;2023-04-22T09:47:50;94411.41;;;32.20;19.74
10946;BME280;5525;42.648;23.368;2023-04-22T09:50:19;94404.56;;;33.70;19.34
10946;BME280;5525;42.648;23.368;2023-04-22T09:52:53;94414.94;;;36.70;16.59
10946;BME280;5525;42.648;23.368;2023-04-22T09:55:22;94420.72;;;35.49;17.12
10946;BME280;5525;42.648;23.368;2023-04-22T09:57:51;94406.97;;;30.10;20.84
10946;BME280;5525;42.648;23.368;2023-04-22T10:00:18;94400.47;;;27.12;23.77
10946;BME280;5525;42.648;23.368;2023-04-22T10:02:45;94408.19;;;30.09;21.14
10946;BME280;5525;42.648;23.368;2023-04-22T10:05:12;94417.81;;;30.69;22.10
10946;BME280;5525;42.648;23.368;2023-04-22T10:07:39;94414.94;;;29.43;22.43
10946;BME280;5525;42.648;23.368;2023-04-22T10:10:07;94407.56;;;28.15;23.78
10946;BME280;5525;42.648;23.368;2023-04-22T10:12:36;94405.06;;;28.58;23.88
10946;BME280;5525;42.648;23.368;2023-04-22T10:15:03;94404.59;;;30.00;21.68
10946;BME280;5525;42.648;23.368;2023-04-22T10:17:32;94412.53;;;28.08;23.54
10946;BME280;5525;42.648;23.368;2023-04-22T10:20:02;94405.34;;;28.23;23.39
10946;BME280;5525;42.648;23.368;2023-04-22T10:22:32;94397.31;;;24.66;26.33
10946;BME280;5525;42.648;23.368;2023-04-22T10:24:59;94400.09;;;23.50;28.11
10946;BME280;5525;42.648;23.368;2023-04-22T10:27:26;94402.75;;;25.98;24.78
10946;BME280;5525;42.648;23.368;2023-04-22T10:29:55;94395.78;;;26.09;24.82
10946;BME280;5525;42.648;23.368;2023-04-22T10:32:26;94379.28;;;27.50;22.79
10946;BME280;5525;42.648;23.368;2023-04-22T10:35:11;94383.38;;;27.30;22.98
10946;BME280;5525;42.648;23.368;2023-04-22T10:37:42;94385.31;;;27.74;23.36
10946;BME280;5525;42.648;23.368;2023-04-22T10:40:13;94383.59;;;29.65;22.29
10946;BME280;5525;42.648;23.368;2023-04-22T10:42:41;94398.88;;;30.25;20.96
10946;BME280;5525;42.648;23.368;2023-04-22T10:45:13;94380.63;;;30.24;20.92
10946;BME280;5525;42.648;23.368;2023-04-22T10:47:41;94369.72;;;30.78;20.30
10946;BME280;5525;42.648;23.368;2023-04-22T10:50:20;94376.38;;;32.61;19.28
10946;BME280;5525;42.648;23.368;2023-04-22T10:52:49;94384.00;;;33.49;18.33
10946;BME280;5525;42.648;23.368;2023-04-22T10:55:17;94389.31;;;33.24;18.24
10946;BME280;5525;42.648;23.368;2023-04-22T10:57:44;94382.28;;;33.28;18.11
10946;BME280;5525;42.648;23.368;2023-04-22T11:00:31;94383.84;;;33.53;17.99
10946;BME280;5525;42.648;23.368;2023-04-22T11:03:15;94384.16;;;33.93;17.88
10946;BME280;5525;42.648;23.368;2023-04-22T11:05:43;94379.50;;;33.52;17.33
10946;BME280;5525;42.648;23.368;2023-04-22T11:08:19;94375.41;;;33.76;17.14
10946;BME280;5525;42.648;23.368;2023-04-22T11:10:49;94376.16;;;34.00;16.65
10946;BME280;5525;42.648;23.368;2023-04-22T11:13:17;94379.91;;;33.97;16.94
10946;BME280;5525;42.648;23.368;2023-04-22T11:15:47;94385.66;;;32.16;17.84
10946;BME280;5525;42.648;23.368;2023-04-22T11:18:19;94380.94;;;30.56;19.43
10946;BME280;5525;42.648;23.368;2023-04-22T11:20:49;94378.81;;;30.39;20.91
10946;BME280;5525;42.648;23.368;2023-04-22T11:23:17;94377.06;;;29.24;22.04
10946;BME280;5525;42.648;23.368;2023-04-22T11:25:44;94376.56;;;28.79;22.49
10946;BME280;5525;42.648;23.368;2023-04-22T11:28:11;94387.63;;;29.51;22.05
10946;BME280;5525;42.648;23.368;2023-04-22T11:30:38;94390.63;;;29.22;22.68
10946;BME280;5525;42.648;23.368;2023-04-22T11:33:06;94386.75;;;28.07;23.44
10946;BME280;5525;42.648;23.368;2023-04-22T11:35:33;94391.06;;;26.78;25.50
10946;BME280;5525;42.648;23.368;2023-04-22T11:38:01;94393.66;;;26.85;25.90
10946;BME280;5525;42.648;23.368;2023-04-22T11:40:30;94390.22;;;25.74;26.24
10946;BME280;5525;42.648;23.368;2023-04-22T11:42:59;94404.38;;;25.76;27.13
10946;BME280;5525;42.648;23.368;2023-04-22T11:45:27;94391.44;;;25.11;28.60
10946;BME280;5525;42.648;23.368;2023-04-22T11:47:54;94402.22;;;25.25;28.73
10946;BME280;5525;42.648;23.368;2023-04-22T11:50:25;94399.63;;;25.76;27.57
10946;BME280;5525;42.648;23.368;2023-04-22T11:52:53;94399.97;;;24.20;29.24
10946;BME280;5525;42.648;23.368;2023-04-22T11:55:22;94407.88;;;23.21;30.21
10946;BME280;5525;42.648;23.368;2023-04-22T11:57:55;94411.16;;;23.09;30.83
10946;BME280;5525;42.648;23.368;2023-04-22T12:00:23;94399.97;;;23.26;30.29
10946;BME280;5525;42.648;23.368;2023-04-22T12:02:57;94401.28;;;23.52;30.97
10946;BME280;5525;42.648;23.368;2023-04-22T12:05:33;94415.81;;;23.15;31.19
10946;BME280;5525;42.648;23.368;2023-04-22T12:08:01;94420.06;;;22.83;32.86
10946;BME280;5525;42.648;23.368;2023-04-22T12:10:28;94424.13;;;20.78;35.65
10946;BME280;5525;42.648;23.368;2023-04-22T12:12:55;94408.88;;;20.49;37.75
10946;BME280;5525;42.648;23.368;2023-04-22T12:15:22;94415.88;;;20.07;39.68
10946;BME280;5525;42.648;23.368;2023-04-22T12:17:49;94416.59;;;19.80;41.76
10946;BME280;5525;42.648;23.368;2023-04-22T12:20:16;94418.97;;;19.92;41.87
10946;BME280;5525;42.648;23.368;2023-04-22T12:22:44;94414.91;;;19.44;44.05
10946;BME280;5525;42.648;23.368;2023-04-22T12:25:16;94419.41;;;19.08;44.34
10946;BME280;5525;42.648;23.368;2023-04-22T12:27:43;94413.59;;;19.17;44.56
10946;BME280;5525;42.648;23.368;2023-04-22T12:30:12;94416.50;;;19.45;42.46
10946;BME280;5525;42.648;23.368;2023-04-22T12:32:39;94412.22;;;19.58;42.27
10946;BME280;5525;42.648;23.368;2023-04-22T12:35:06;94417.16;;;19.24;41.20
10946;BME280;5525;42.648;23.368;2023-04-22T12:37:33;94412.75;;;19.06;42.32
10946;BME280;5525;42.648;23.368;2023-04-22T12:40:02;94417.09;;;18.53;44.51
10946;BME280;5525;42.648;23.368;2023-04-22T12:42:31;94420.09;;;18.37;49.75
10946;BME280;5525;42.648;23.368;2023-04-22T12:44:57;94414.06;;;17.11;53.79
10946;BME280;5525;42.648;23.368;2023-04-22T12:47:24;94425.34;;;17.13;55.61
10946;BME280;5525;42.648;23.368;2023-04-22T12:49:50;94420.03;;;17.24;56.10
10946;BME280;5525;42.648;23.368;2023-04-22T12:52:17;94421.63;;;17.25;56.88
10946;BME280;5525;42.648;23.368;2023-04-22T12:54:44;94415.50;;;16.75;60.03
10946;BME280;5525;42.648;23.368;2023-04-22T12:57:12;94404.13;;;17.29;62.42
10946;BME280;5525;42.648;23.368;2023-04-22T12:59:38;94404.72;;;17.45;61.61
10946;BME280;5525;42.648;23.368;2023-04-22T13:02:05;94407.78;;;17.40;63.17